sensor_id;sensor_type;location;lat;lon;timestamp;temperature;humidity
39079;DHT22;24829;49.208;12.080;2022-07-06T00:01:15;19.20;68.10
39079;DHT22;24829;49.208;12.080;2022-07-06T00:03:41;19.10;68.60
39079;DHT22;24829;49.208;12.080;2022-07-06T00:06:07;19.00;68.80
39079;DHT22;24829;49.208;12.080;2022-07-06T00:08:32;18.90;69.10
39079;DHT22;24829;49.208;12.080;2022-07-06T00:10:58;18.90;69.30
39079;DHT22;24829;49.208;12.080;2022-07-06T00:13:24;18.80;69.30
39079;DHT22;24829;49.208;12.080;2022-07-06T00:15:49;18.80;69.50
39079;DHT22;24829;49.208;12.080;2022-07-06T00:18:15;18.80;69.70
39079;DHT22;24829;49.208;12.080;2022-07-06T00:20:40;18.80;69.70
39079;DHT22;24829;49.208;12.080;2022-07-06T00:23:06;18.80;70.00
39079;DHT22;24829;49.208;12.080;2022-07-06T00:25:31;18.90;69.70
39079;DHT22;24829;49.208;12.080;2022-07-06T00:27:57;19.00;70.00
39079;DHT22;24829;49.208;12.080;2022-07-06T00:30:22;19.00;70.00
39079;DHT22;24829;49.208;12.080;2022-07-06T00:32:48;19.00;69.80
39079;DHT22;24829;49.208;12.080;2022-07-06T00:35:14;19.00;69.60
39079;DHT22;24829;49.208;12.080;2022-07-06T00:37:39;19.00;69.50
39079;DHT22;24829;49.208;12.080;2022-07-06T00:40:05;19.00;69.40
39079;DHT22;24829;49.208;12.080;2022-07-06T00:42:44;19.00;69.50
39079;DHT22;24829;49.208;12.080;2022-07-06T00:45:10;19.00;69.70
39079;DHT22;24829;49.208;12.080;2022-07-06T00:47:37;19.10;69.70
39079;DHT22;24829;49.208;12.080;2022-07-06T00:50:07;19.00;70.40
39079;DHT22;24829;49.208;12.080;2022-07-06T00:52:52;19.00;70.50
39079;DHT22;24829;49.208;12.080;2022-07-06T00:55:21;18.90;70.90
39079;DHT22;24829;49.208;12.080;2022-07-06T00:57:46;18.90;71.30
39079;DHT22;24829;49.208;12.080;2022-07-06T01:00:14;18.80;71.70
39079;DHT22;24829;49.208;12.080;2022-07-06T01:02:41;18.70;71.90
39079;DHT22;24829;49.208;12.080;2022-07-06T01:05:08;18.60;72.30
39079;DHT22;24829;49.208;12.080;2022-07-06T01:07:36;18.50;72.20
39079;DHT22;24829;49.208;12.080;2022-07-06T01:10:04;18.40;72.20
39079;DHT22;24829;49.208;12.080;2022-07-06T01:12:30;18.40;72.40
39079;DHT22;24829;49.208;12.080;2022-07-06T01:14:56;18.30;72.50
39079;DHT22;24829;49.208;12.080;2022-07-06T01:17:22;18.30;72.40
39079;DHT22;24829;49.208;12.080;2022-07-06T01:19:49;18.30;72.70
39079;DHT22;24829;49.208;12.080;2022-07-06T01:22:14;18.30;72.60
39079;DHT22;24829;49.208;12.080;2022-07-06T01:24:40;18.40;73.20
39079;DHT22;24829;49.208;12.080;2022-07-06T01:27:06;18.30;73.40
39079;DHT22;24829;49.208;12.080;2022-07-06T01:29:32;18.20;73.70
39079;DHT22;24829;49.208;12.080;2022-07-06T01:31:58;18.20;73.70
39079;DHT22;24829;49.208;12.080;2022-07-06T01:34:23;18.20;74.10
39079;DHT22;24829;49.208;12.080;2022-07-06T01:36:49;18.20;74.00
39079;DHT22;24829;49.208;12.080;2022-07-06T01:39:15;18.20;74.20
39079;DHT22;24829;49.208;12.080;2022-07-06T01:41:40;18.10;74.50
39079;DHT22;24829;49.208;12.080;2022-07-06T01:44:06;18.10;74.90
39079;DHT22;24829;49.208;12.080;2022-07-06T01:46:32;18.00;75.20
39079;DHT22;24829;49.208;12.080;2022-07-06T01:48:58;18.00;75.60
39079;DHT22;24829;49.208;12.080;2022-07-06T01:51:24;17.90;75.40
39079;DHT22;24829;49.208;12.080;2022-07-06T01:53:50;17.80;75.60
39079;DHT22;24829;49.208;12.080;2022-07-06T01:56:17;17.70;76.30
39079;DHT22;24829;49.208;12.080;2022-07-06T01:58:44;17.50;76.20
39079;DHT22;24829;49.208;12.080;2022-07-06T02:01:12;17.50;76.40
39079;DHT22;24829;49.208;12.080;2022-07-06T02:03:38;17.40;76.60
39079;DHT22;24829;49.208;12.080;2022-07-06T02:06:04;17.40;76.70
39079;DHT22;24829;49.208;12.080;2022-07-06T02:08:31;17.40;77.20
39079;DHT22;24829;49.208;12.080;2022-07-06T02:10:57;17.30;77.30
39079;DHT22;24829;49.208;12.080;2022-07-06T02:13:23;17.30;77.80
39079;DHT22;24829;49.208;12.080;2022-07-06T02:15:49;17.30;78.40
39079;DHT22;24829;49.208;12.080;2022-07-06T02:18:14;17.20;78.60
39079;DHT22;24829;49.208;12.080;2022-07-06T02:20:40;17.20;78.80
39079;DHT22;24829;49.208;12.080;2022-07-06T02:23:05;17.10;78.70
39079;DHT22;24829;49.208;12.080;2022-07-06T02:25:31;17.00;78.40
39079;DHT22;24829;49.208;12.080;2022-07-06T02:27:56;17.00;78.20
39079;DHT22;24829;49.208;12.080;2022-07-06T02:30:22;16.90;78.40
39079;DHT22;24829;49.208;12.080;2022-07-06T02:32:47;16.90;78.50
39079;DHT22;24829;49.208;12.080;2022-07-06T02:35:13;17.00;78.50
39079;DHT22;24829;49.208;12.080;2022-07-06T02:37:39;17.00;78.70
39079;DHT22;24829;49.208;12.080;2022-07-06T02:40:05;17.10;78.70
39079;DHT22;24829;49.208;12.080;2022-07-06T02:42:31;17.10;79.00
39079;DHT22;24829;49.208;12.080;2022-07-06T02:44:56;17.10;79.30
39079;DHT22;24829;49.208;12.080;2022-07-06T02:47:22;17.10;79.10
39079;DHT22;24829;49.208;12.080;2022-07-06T02:49:48;17.10;79.30
39079;DHT22;24829;49.208;12.080;2022-07-06T02:52:14;17.10;79.20
39079;DHT22;24829;49.208;12.080;2022-07-06T02:54:39;17.20;79.40
39079;DHT22;24829;49.208;12.080;2022-07-06T02:57:05;17.20;79.50
39079;DHT22;24829;49.208;12.080;2022-07-06T02:59:30;17.40;79.30
39079;DHT22;24829;49.208;12.080;2022-07-06T03:01:56;17.50;79.00
39079;DHT22;24829;49.208;12.080;2022-07-06T03:04:21;17.50;79.00
39079;DHT22;24829;49.208;12.080;2022-07-06T03:06:47;17.50;79.20
39079;DHT22;24829;49.208;12.080;2022-07-06T03:09:13;17.50;79.40
39079;DHT22;24829;49.208;12.080;2022-07-06T03:11:38;17.50;79.40
39079;DHT22;24829;49.208;12.080;2022-07-06T03:14:04;17.60;79.30
39079;DHT22;24829;49.208;12.080;2022-07-06T03:16:30;17.60;79.10
39079;DHT22;24829;49.208;12.080;2022-07-06T03:18:56;17.60;79.20
39079;DHT22;24829;49.208;12.080;2022-07-06T03:21:23;17.70;79.20
39079;DHT22;24829;49.208;12.080;2022-07-06T03:23:49;17.70;79.30
39079;DHT22;24829;49.208;12.080;2022-07-06T03:26:14;17.70;79.40
39079;DHT22;24829;49.208;12.080;2022-07-06T03:28:40;17.70;79.40
39079;DHT22;24829;49.208;12.080;2022-07-06T03:31:06;17.70;79.70
39079;DHT22;24829;49.208;12.080;2022-07-06T03:33:31;17.70;79.70
39079;DHT22;24829;49.208;12.080;2022-07-06T03:35:57;17.70;79.80
39079;DHT22;24829;49.208;12.080;2022-07-06T03:38:22;17.70;79.90
39079;DHT22;24829;49.208;12.080;2022-07-06T03:40:48;17.70;79.90
39079;DHT22;24829;49.208;12.080;2022-07-06T03:43:13;17.70;80.10
39079;DHT22;24829;49.208;12.080;2022-07-06T03:45:39;17.60;80.30
39079;DHT22;24829;49.208;12.080;2022-07-06T03:48:05;17.60;80.30
39079;DHT22;24829;49.208;12.080;2022-07-06T03:50:30;17.70;80.40
39079;DHT22;24829;49.208;12.080;2022-07-06T03:52:56;17.70;80.80
39079;DHT22;24829;49.208;12.080;2022-07-06T03:55:22;17.70;81.00
39079;DHT22;24829;49.208;12.080;2022-07-06T03:57:47;17.70;81.00
39079;DHT22;24829;49.208;12.080;2022-07-06T04:00:13;17.80;81.00
39079;DHT22;24829;49.208;12.080;2022-07-06T04:02:39;17.80;80.70
39079;DHT22;24829;49.208;12.080;2022-07-06T04:05:05;17.90;80.80
39079;DHT22;24829;49.208;12.080;2022-07-06T04:07:30;17.90;80.90
39079;DHT22;24829;49.208;12.080;2022-07-06T04:09:56;18.10;80.30
39079;DHT22;24829;49.208;12.080;2022-07-06T04:12:21;18.50;79.40
39079;DHT22;24829;49.208;12.080;2022-07-06T04:14:47;19.00;77.90
39079;DHT22;24829;49.208;12.080;2022-07-06T04:17:13;19.60;76.60
39079;DHT22;24829;49.208;12.080;2022-07-06T04:19:57;20.20;75.00
39079;DHT22;24829;49.208;12.080;2022-07-06T04:22:22;20.30;74.50
39079;DHT22;24829;49.208;12.080;2022-07-06T04:24:48;20.20;74.60
39079;DHT22;24829;49.208;12.080;2022-07-06T04:27:13;20.00;75.40
39079;DHT22;24829;49.208;12.080;2022-07-06T04:29:39;19.90;75.50
39079;DHT22;24829;49.208;12.080;2022-07-06T04:32:05;20.10;75.30
39079;DHT22;24829;49.208;12.080;2022-07-06T04:34:30;20.60;74.00
39079;DHT22;24829;49.208;12.080;2022-07-06T04:36:56;21.10;72.60
39079;DHT22;24829;49.208;12.080;2022-07-06T04:39:21;21.60;71.10
39079;DHT22;24829;49.208;12.080;2022-07-06T04:41:47;22.10;69.70
39079;DHT22;24829;49.208;12.080;2022-07-06T04:44:12;22.40;69.10
39079;DHT22;24829;49.208;12.080;2022-07-06T04:46:38;22.70;68.00
39079;DHT22;24829;49.208;12.080;2022-07-06T04:49:03;22.80;67.80
39079;DHT22;24829;49.208;12.080;2022-07-06T04:51:29;22.90;67.60
39079;DHT22;24829;49.208;12.080;2022-07-06T04:53:55;23.10;67.40
39079;DHT22;24829;49.208;12.080;2022-07-06T04:56:20;23.40;67.20
39079;DHT22;24829;49.208;12.080;2022-07-06T04:58:46;23.80;66.40
39079;DHT22;24829;49.208;12.080;2022-07-06T05:01:11;24.10;65.70
39079;DHT22;24829;49.208;12.080;2022-07-06T05:03:37;24.20;65.40
39079;DHT22;24829;49.208;12.080;2022-07-06T05:06:06;24.10;65.00
39079;DHT22;24829;49.208;12.080;2022-07-06T05:08:32;23.90;65.60
39079;DHT22;24829;49.208;12.080;2022-07-06T05:10:58;23.90;65.40
39079;DHT22;24829;49.208;12.080;2022-07-06T05:13:23;23.80;66.10
39079;DHT22;24829;49.208;12.080;2022-07-06T05:15:49;23.90;65.90
39079;DHT22;24829;49.208;12.080;2022-07-06T05:18:14;24.20;64.70
39079;DHT22;24829;49.208;12.080;2022-07-06T05:20:40;24.10;64.80
39079;DHT22;24829;49.208;12.080;2022-07-06T05:23:06;24.00;65.10
39079;DHT22;24829;49.208;12.080;2022-07-06T05:25:31;24.10;64.70
39079;DHT22;24829;49.208;12.080;2022-07-06T05:27:58;24.10;65.10
39079;DHT22;24829;49.208;12.080;2022-07-06T05:30:25;24.10;65.10
39079;DHT22;24829;49.208;12.080;2022-07-06T05:32:50;24.30;64.90
39079;DHT22;24829;49.208;12.080;2022-07-06T05:35:16;24.40;64.40
39079;DHT22;24829;49.208;12.080;2022-07-06T05:37:42;24.70;64.00
39079;DHT22;24829;49.208;12.080;2022-07-06T05:40:08;24.60;63.30
39079;DHT22;24829;49.208;12.080;2022-07-06T05:42:34;24.30;63.60
39079;DHT22;24829;49.208;12.080;2022-07-06T05:44:59;23.60;65.00
39079;DHT22;24829;49.208;12.080;2022-07-06T05:47:25;23.20;66.20
39079;DHT22;24829;49.208;12.080;2022-07-06T05:50:09;22.90;67.00
39079;DHT22;24829;49.208;12.080;2022-07-06T05:52:38;22.70;67.30
39079;DHT22;24829;49.208;12.080;2022-07-06T05:55:04;22.60;67.30
39079;DHT22;24829;49.208;12.080;2022-07-06T05:57:29;22.50;67.70
39079;DHT22;24829;49.208;12.080;2022-07-06T05:59:55;22.30;68.10
39079;DHT22;24829;49.208;12.080;2022-07-06T06:02:20;22.00;69.10
39079;DHT22;24829;49.208;12.080;2022-07-06T06:04:46;21.60;69.90
39079;DHT22;24829;49.208;12.080;2022-07-06T06:07:12;21.30;70.70
39079;DHT22;24829;49.208;12.080;2022-07-06T06:09:37;21.10;71.50
39079;DHT22;24829;49.208;12.080;2022-07-06T06:12:03;20.90;72.20
39079;DHT22;24829;49.208;12.080;2022-07-06T06:14:29;20.70;72.60
39079;DHT22;24829;49.208;12.080;2022-07-06T06:16:54;20.60;72.60
39079;DHT22;24829;49.208;12.080;2022-07-06T06:19:20;20.50;73.20
39079;DHT22;24829;49.208;12.080;2022-07-06T06:21:45;20.40;73.50
39079;DHT22;24829;49.208;12.080;2022-07-06T06:24:11;20.60;73.00
39079;DHT22;24829;49.208;12.080;2022-07-06T06:26:37;20.70;72.70
39079;DHT22;24829;49.208;12.080;2022-07-06T06:29:02;20.70;72.70
39079;DHT22;24829;49.208;12.080;2022-07-06T06:31:28;20.70;72.80
39079;DHT22;24829;49.208;12.080;2022-07-06T06:33:53;20.60;73.20
39079;DHT22;24829;49.208;12.080;2022-07-06T06:36:19;20.50;73.50
39079;DHT22;24829;49.208;12.080;2022-07-06T06:38:45;20.50;73.90
39079;DHT22;24829;49.208;12.080;2022-07-06T06:41:10;20.70;74.50
39079;DHT22;24829;49.208;12.080;2022-07-06T06:43:36;20.90;73.60
39079;DHT22;24829;49.208;12.080;2022-07-06T06:46:01;21.50;73.10
39079;DHT22;24829;49.208;12.080;2022-07-06T06:48:27;22.00;71.80
39079;DHT22;24829;49.208;12.080;2022-07-06T06:50:52;22.70;70.50
39079;DHT22;24829;49.208;12.080;2022-07-06T06:53:18;23.30;69.00
39079;DHT22;24829;49.208;12.080;2022-07-06T06:55:43;23.70;67.80
39079;DHT22;24829;49.208;12.080;2022-07-06T06:58:09;23.90;67.00
39079;DHT22;24829;49.208;12.080;2022-07-06T07:00:34;24.20;66.20
39079;DHT22;24829;49.208;12.080;2022-07-06T07:03:00;24.30;66.20
39079;DHT22;24829;49.208;12.080;2022-07-06T07:05:26;24.40;65.70
39079;DHT22;24829;49.208;12.080;2022-07-06T07:07:51;24.50;65.20
39079;DHT22;24829;49.208;12.080;2022-07-06T07:10:17;24.70;65.00
39079;DHT22;24829;49.208;12.080;2022-07-06T07:12:46;24.80;64.70
39079;DHT22;24829;49.208;12.080;2022-07-06T07:15:13;24.90;64.30
39079;DHT22;24829;49.208;12.080;2022-07-06T07:17:39;25.00;64.40
39079;DHT22;24829;49.208;12.080;2022-07-06T07:20:05;25.20;64.60
39079;DHT22;24829;49.208;12.080;2022-07-06T07:22:31;25.30;63.80
39079;DHT22;24829;49.208;12.080;2022-07-06T07:24:56;25.40;63.40
39079;DHT22;24829;49.208;12.080;2022-07-06T07:27:24;25.60;62.90
39079;DHT22;24829;49.208;12.080;2022-07-06T07:29:50;25.50;62.30
39079;DHT22;24829;49.208;12.080;2022-07-06T07:32:15;25.50;62.60
39079;DHT22;24829;49.208;12.080;2022-07-06T07:34:41;25.60;62.70
39079;DHT22;24829;49.208;12.080;2022-07-06T07:37:06;25.50;62.10
39079;DHT22;24829;49.208;12.080;2022-07-06T07:39:32;25.60;62.60
39079;DHT22;24829;49.208;12.080;2022-07-06T07:41:57;25.70;61.90
39079;DHT22;24829;49.208;12.080;2022-07-06T07:44:23;25.90;61.60
39079;DHT22;24829;49.208;12.080;2022-07-06T07:46:50;25.90;61.60
39079;DHT22;24829;49.208;12.080;2022-07-06T07:49:18;26.10;61.70
39079;DHT22;24829;49.208;12.080;2022-07-06T07:51:44;26.40;61.20
39079;DHT22;24829;49.208;12.080;2022-07-06T07:54:12;26.60;60.40
39079;DHT22;24829;49.208;12.080;2022-07-06T07:56:37;26.60;60.30
39079;DHT22;24829;49.208;12.080;2022-07-06T07:59:06;26.60;60.60
39079;DHT22;24829;49.208;12.080;2022-07-06T08:01:32;26.70;60.20
39079;DHT22;24829;49.208;12.080;2022-07-06T08:03:57;26.70;60.30
39079;DHT22;24829;49.208;12.080;2022-07-06T08:06:23;26.90;60.20
39079;DHT22;24829;49.208;12.080;2022-07-06T08:08:49;27.10;60.30
39079;DHT22;24829;49.208;12.080;2022-07-06T08:11:15;27.20;59.70
39079;DHT22;24829;49.208;12.080;2022-07-06T08:13:40;27.00;59.00
39079;DHT22;24829;49.208;12.080;2022-07-06T08:16:06;26.80;58.90
39079;DHT22;24829;49.208;12.080;2022-07-06T08:18:31;26.70;59.40
39079;DHT22;24829;49.208;12.080;2022-07-06T08:20:57;26.50;59.00
39079;DHT22;24829;49.208;12.080;2022-07-06T08:23:23;26.50;58.70
39079;DHT22;24829;49.208;12.080;2022-07-06T08:25:49;26.40;59.10
39079;DHT22;24829;49.208;12.080;2022-07-06T08:28:14;26.40;59.30
39079;DHT22;24829;49.208;12.080;2022-07-06T08:30:40;26.30;59.00
39079;DHT22;24829;49.208;12.080;2022-07-06T08:33:05;26.40;58.40
39079;DHT22;24829;49.208;12.080;2022-07-06T08:35:31;26.30;58.50
39079;DHT22;24829;49.208;12.080;2022-07-06T08:37:57;26.50;58.50
39079;DHT22;24829;49.208;12.080;2022-07-06T08:40:23;26.80;58.40
39079;DHT22;24829;49.208;12.080;2022-07-06T08:42:53;26.90;57.70
39079;DHT22;24829;49.208;12.080;2022-07-06T08:45:19;27.00;57.20
39079;DHT22;24829;49.208;12.080;2022-07-06T08:47:46;27.20;57.50
39079;DHT22;24829;49.208;12.080;2022-07-06T08:50:14;27.30;56.70
39079;DHT22;24829;49.208;12.080;2022-07-06T08:52:41;27.50;56.40
39079;DHT22;24829;49.208;12.080;2022-07-06T08:55:10;27.70;56.20
39079;DHT22;24829;49.208;12.080;2022-07-06T08:57:37;27.60;55.50
39079;DHT22;24829;49.208;12.080;2022-07-06T09:00:08;27.60;55.30
39079;DHT22;24829;49.208;12.080;2022-07-06T09:02:34;27.70;54.50
39079;DHT22;24829;49.208;12.080;2022-07-06T09:05:02;27.70;53.80
39079;DHT22;24829;49.208;12.080;2022-07-06T09:07:28;27.70;54.70
39079;DHT22;24829;49.208;12.080;2022-07-06T09:09:54;27.90;54.20
39079;DHT22;24829;49.208;12.080;2022-07-06T09:12:21;28.00;53.30
39079;DHT22;24829;49.208;12.080;2022-07-06T09:14:47;27.50;54.40
39079;DHT22;24829;49.208;12.080;2022-07-06T09:17:12;27.30;54.60
39079;DHT22;24829;49.208;12.080;2022-07-06T09:19:38;27.10;54.90
39079;DHT22;24829;49.208;12.080;2022-07-06T09:22:04;27.10;54.60
39079;DHT22;24829;49.208;12.080;2022-07-06T09:24:30;27.20;55.10
39079;DHT22;24829;49.208;12.080;2022-07-06T09:26:57;27.10;56.00
39079;DHT22;24829;49.208;12.080;2022-07-06T09:29:30;27.00;53.60
39079;DHT22;24829;49.208;12.080;2022-07-06T09:32:01;26.80;54.20
39079;DHT22;24829;49.208;12.080;2022-07-06T09:34:44;26.70;53.90
39079;DHT22;24829;49.208;12.080;2022-07-06T09:37:10;27.00;55.00
39079;DHT22;24829;49.208;12.080;2022-07-06T09:39:36;27.40;54.20
39079;DHT22;24829;49.208;12.080;2022-07-06T09:42:03;27.80;53.80
39079;DHT22;24829;49.208;12.080;2022-07-06T09:44:30;27.80;52.70
39079;DHT22;24829;49.208;12.080;2022-07-06T09:46:58;27.70;53.00
39079;DHT22;24829;49.208;12.080;2022-07-06T09:49:24;27.80;52.70
39079;DHT22;24829;49.208;12.080;2022-07-06T09:51:52;27.80;52.50
39079;DHT22;24829;49.208;12.080;2022-07-06T09:54:18;27.80;52.30
39079;DHT22;24829;49.208;12.080;2022-07-06T09:56:46;27.30;52.60
39079;DHT22;24829;49.208;12.080;2022-07-06T09:59:20;27.00;53.40
39079;DHT22;24829;49.208;12.080;2022-07-06T10:01:47;27.10;54.10
39079;DHT22;24829;49.208;12.080;2022-07-06T10:04:15;27.20;52.60
39079;DHT22;24829;49.208;12.080;2022-07-06T10:06:44;27.50;52.60
39079;DHT22;24829;49.208;12.080;2022-07-06T10:09:10;27.90;52.30
39079;DHT22;24829;49.208;12.080;2022-07-06T10:11:42;28.00;52.20
39079;DHT22;24829;49.208;12.080;2022-07-06T10:14:10;27.90;51.20
39079;DHT22;24829;49.208;12.080;2022-07-06T10:16:37;27.80;50.80
39079;DHT22;24829;49.208;12.080;2022-07-06T10:19:09;27.60;50.90
39079;DHT22;24829;49.208;12.080;2022-07-06T10:21:36;27.60;51.00
39079;DHT22;24829;49.208;12.080;2022-07-06T10:24:03;27.50;51.60
39079;DHT22;24829;49.208;12.080;2022-07-06T10:26:30;27.50;51.80
39079;DHT22;24829;49.208;12.080;2022-07-06T10:28:58;27.50;51.90
39079;DHT22;24829;49.208;12.080;2022-07-06T10:31:25;27.70;51.50
39079;DHT22;24829;49.208;12.080;2022-07-06T10:33:52;27.90;51.90
39079;DHT22;24829;49.208;12.080;2022-07-06T10:36:18;28.10;51.20
39079;DHT22;24829;49.208;12.080;2022-07-06T10:38:48;27.90;51.30
39079;DHT22;24829;49.208;12.080;2022-07-06T10:41:14;27.50;51.50
39079;DHT22;24829;49.208;12.080;2022-07-06T10:43:45;27.20;52.20
39079;DHT22;24829;49.208;12.080;2022-07-06T10:48:44;26.60;52.50
39079;DHT22;24829;49.208;12.080;2022-07-06T10:53:56;26.90;52.70
39079;DHT22;24829;49.208;12.080;2022-07-06T10:56:45;27.30;51.20
39079;DHT22;24829;49.208;12.080;2022-07-06T11:04:39;27.40;50.80
39079;DHT22;24829;49.208;12.080;2022-07-06T11:07:18;27.40;50.90
39079;DHT22;24829;49.208;12.080;2022-07-06T11:09:58;27.50;50.90
39079;DHT22;24829;49.208;12.080;2022-07-06T11:12:24;27.70;50.30
39079;DHT22;24829;49.208;12.080;2022-07-06T11:14:50;27.80;49.10
39079;DHT22;24829;49.208;12.080;2022-07-06T11:17:17;27.90;49.20
39079;DHT22;24829;49.208;12.080;2022-07-06T11:20:08;28.00;48.90
39079;DHT22;24829;49.208;12.080;2022-07-06T11:22:36;28.00;49.40
39079;DHT22;24829;49.208;12.080;2022-07-06T11:25:03;28.10;49.20
39079;DHT22;24829;49.208;12.080;2022-07-06T11:27:29;28.30;48.90
39079;DHT22;24829;49.208;12.080;2022-07-06T11:29:55;28.40;49.20
39079;DHT22;24829;49.208;12.080;2022-07-06T11:32:25;28.30;49.30
39079;DHT22;24829;49.208;12.080;2022-07-06T11:34:51;28.10;49.30
39079;DHT22;24829;49.208;12.080;2022-07-06T11:37:17;27.90;49.30
39079;DHT22;24829;49.208;12.080;2022-07-06T11:39:45;27.90;49.20
39079;DHT22;24829;49.208;12.080;2022-07-06T11:42:13;28.00;49.30
39079;DHT22;24829;49.208;12.080;2022-07-06T11:44:40;28.10;48.90
39079;DHT22;24829;49.208;12.080;2022-07-06T11:47:07;28.20;48.70
39079;DHT22;24829;49.208;12.080;2022-07-06T11:49:34;28.10;48.20
39079;DHT22;24829;49.208;12.080;2022-07-06T11:52:05;27.80;48.50
39079;DHT22;24829;49.208;12.080;2022-07-06T11:54:32;27.40;49.50
39079;DHT22;24829;49.208;12.080;2022-07-06T11:56:59;27.00;50.10
39079;DHT22;24829;49.208;12.080;2022-07-06T11:59:27;26.70;50.80
39079;DHT22;24829;49.208;12.080;2022-07-06T12:02:06;26.60;51.10
39079;DHT22;24829;49.208;12.080;2022-07-06T12:04:34;26.70;50.30
39079;DHT22;24829;49.208;12.080;2022-07-06T12:07:03;26.70;49.80
39079;DHT22;24829;49.208;12.080;2022-07-06T12:09:40;26.60;49.30
39079;DHT22;24829;49.208;12.080;2022-07-06T12:12:07;26.50;49.80
39079;DHT22;24829;49.208;12.080;2022-07-06T12:14:35;26.60;49.90
39079;DHT22;24829;49.208;12.080;2022-07-06T12:17:15;26.60;49.80
39079;DHT22;24829;49.208;12.080;2022-07-06T12:19:41;26.60;50.00
39079;DHT22;24829;49.208;12.080;2022-07-06T12:22:08;26.60;50.10
39079;DHT22;24829;49.208;12.080;2022-07-06T12:24:35;26.60;49.80
39079;DHT22;24829;49.208;12.080;2022-07-06T12:29:37;26.70;50.20
39079;DHT22;24829;49.208;12.080;2022-07-06T12:32:03;26.90;50.40
39079;DHT22;24829;49.208;12.080;2022-07-06T12:34:31;27.10;50.20
39079;DHT22;24829;49.208;12.080;2022-07-06T12:36:58;27.20;49.00
39079;DHT22;24829;49.208;12.080;2022-07-06T12:39:26;27.30;48.40
39079;DHT22;24829;49.208;12.080;2022-07-06T12:42:03;27.50;48.40
39079;DHT22;24829;49.208;12.080;2022-07-06T12:44:31;27.60;48.30
39079;DHT22;24829;49.208;12.080;2022-07-06T12:47:08;27.60;47.70
39079;DHT22;24829;49.208;12.080;2022-07-06T12:49:35;27.60;47.50
39079;DHT22;24829;49.208;12.080;2022-07-06T12:54:42;27.20;48.00
39079;DHT22;24829;49.208;12.080;2022-07-06T12:57:13;26.90;49.00
39079;DHT22;24829;49.208;12.080;2022-07-06T13:04:43;27.30;48.30
39079;DHT22;24829;49.208;12.080;2022-07-06T13:07:19;27.50;48.60
39079;DHT22;24829;49.208;12.080;2022-07-06T13:09:45;27.70;48.30
39079;DHT22;24829;49.208;12.080;2022-07-06T13:12:10;27.80;48.10
39079;DHT22;24829;49.208;12.080;2022-07-06T13:14:36;27.40;48.40
39079;DHT22;24829;49.208;12.080;2022-07-06T13:17:02;27.20;48.20
39079;DHT22;24829;49.208;12.080;2022-07-06T13:19:28;27.20;48.30
39079;DHT22;24829;49.208;12.080;2022-07-06T13:21:54;27.10;48.50
39079;DHT22;24829;49.208;12.080;2022-07-06T13:24:19;27.00;49.20
39079;DHT22;24829;49.208;12.080;2022-07-06T13:26:45;26.90;49.60
39079;DHT22;24829;49.208;12.080;2022-07-06T13:29:12;26.80;49.00
39079;DHT22;24829;49.208;12.080;2022-07-06T13:31:38;26.70;49.70
39079;DHT22;24829;49.208;12.080;2022-07-06T13:34:05;26.60;49.90
39079;DHT22;24829;49.208;12.080;2022-07-06T13:36:31;26.60;49.70
39079;DHT22;24829;49.208;12.080;2022-07-06T13:38:57;26.80;49.30
39079;DHT22;24829;49.208;12.080;2022-07-06T13:41:22;26.90;49.10
39079;DHT22;24829;49.208;12.080;2022-07-06T13:43:48;26.80;49.30
39079;DHT22;24829;49.208;12.080;2022-07-06T13:46:14;26.70;49.80
39079;DHT22;24829;49.208;12.080;2022-07-06T13:48:40;26.70;50.20
39079;DHT22;24829;49.208;12.080;2022-07-06T13:51:06;26.80;49.30
39079;DHT22;24829;49.208;12.080;2022-07-06T13:53:31;26.90;49.10
39079;DHT22;24829;49.208;12.080;2022-07-06T13:55:57;26.90;48.50
39079;DHT22;24829;49.208;12.080;2022-07-06T13:58:23;26.80;49.30
39079;DHT22;24829;49.208;12.080;2022-07-06T14:00:55;26.70;49.10
39079;DHT22;24829;49.208;12.080;2022-07-06T14:03:20;26.50;48.90
39079;DHT22;24829;49.208;12.080;2022-07-06T14:05:53;26.30;49.70
39079;DHT22;24829;49.208;12.080;2022-07-06T14:08:18;26.30;50.30
39079;DHT22;24829;49.208;12.080;2022-07-06T14:10:44;26.30;50.90
39079;DHT22;24829;49.208;12.080;2022-07-06T14:13:09;26.50;50.70
39079;DHT22;24829;49.208;12.080;2022-07-06T14:15:35;26.50;50.20
39079;DHT22;24829;49.208;12.080;2022-07-06T14:18:00;26.40;50.80
39079;DHT22;24829;49.208;12.080;2022-07-06T14:20:26;26.50;51.60
39079;DHT22;24829;49.208;12.080;2022-07-06T14:22:51;26.50;50.70
39079;DHT22;24829;49.208;12.080;2022-07-06T14:25:17;26.70;50.70
39079;DHT22;24829;49.208;12.080;2022-07-06T14:27:42;26.90;51.00
39079;DHT22;24829;49.208;12.080;2022-07-06T14:30:09;26.90;50.40
39079;DHT22;24829;49.208;12.080;2022-07-06T14:32:35;26.90;50.20
39079;DHT22;24829;49.208;12.080;2022-07-06T14:35:00;26.90;50.00
39079;DHT22;24829;49.208;12.080;2022-07-06T14:37:26;26.70;50.30
39079;DHT22;24829;49.208;12.080;2022-07-06T14:39:51;26.60;50.40
39079;DHT22;24829;49.208;12.080;2022-07-06T14:42:17;26.50;50.60
39079;DHT22;24829;49.208;12.080;2022-07-06T14:44:43;26.30;50.80
39079;DHT22;24829;49.208;12.080;2022-07-06T14:47:08;26.20;51.10
39079;DHT22;24829;49.208;12.080;2022-07-06T14:49:34;26.20;51.10
39079;DHT22;24829;49.208;12.080;2022-07-06T14:51:59;26.10;51.10
39079;DHT22;24829;49.208;12.080;2022-07-06T14:54:25;26.10;50.70
39079;DHT22;24829;49.208;12.080;2022-07-06T14:56:51;26.10;50.70
39079;DHT22;24829;49.208;12.080;2022-07-06T14:59:17;26.00;51.80
39079;DHT22;24829;49.208;12.080;2022-07-06T15:01:43;25.90;51.90
39079;DHT22;24829;49.208;12.080;2022-07-06T15:04:09;26.10;51.60
39079;DHT22;24829;49.208;12.080;2022-07-06T15:06:35;26.00;52.00
39079;DHT22;24829;49.208;12.080;2022-07-06T15:09:01;26.10;51.50
39079;DHT22;24829;49.208;12.080;2022-07-06T15:11:30;26.00;51.50
39079;DHT22;24829;49.208;12.080;2022-07-06T15:13:55;26.00;51.60
39079;DHT22;24829;49.208;12.080;2022-07-06T15:16:21;25.90;51.70
39079;DHT22;24829;49.208;12.080;2022-07-06T15:18:46;26.00;51.90
39079;DHT22;24829;49.208;12.080;2022-07-06T15:21:12;26.10;51.90
39079;DHT22;24829;49.208;12.080;2022-07-06T15:23:37;26.20;51.30
39079;DHT22;24829;49.208;12.080;2022-07-06T15:26:03;26.20;50.70
39079;DHT22;24829;49.208;12.080;2022-07-06T15:28:29;26.20;50.80
39079;DHT22;24829;49.208;12.080;2022-07-06T15:30:55;26.30;50.60
39079;DHT22;24829;49.208;12.080;2022-07-06T15:33:21;26.30;50.40